DUS weather

Düsseldorf Airport
Düsseldorf, North Rhine-Westphalia, Germany

Public forecast

Using degrees Celsius for public forecast. Weather courtesy of forecast.io.

METAR (pilot weather report)

Retrieved 2019/04/21 12:20 UTC (6 minutes ago):

EDDL 211220Z 08008KT 050V110 CAVOK 24/01 Q1019 NOSIG

TAF (pilot weather forecast)

Retrieved 2019/04/21 12:26 UTC (0 seconds ago):

TAF EDDL 211100Z 2112/2218 VRB03KT CAVOK TEMPO 2112/2116 08006KT BECMG 2205/2208 13012KT TEMPO 2211/2218 11015G25KT